sensor_id;sensor_type;location;lat;lon;timestamp;P1;durP1;ratioP1;P2;durP2;ratioP2
51122;SDS011;37162;41.724;13.346;2022-08-01T00:01:46;2.58;;;1.60;;
51122;SDS011;37162;41.724;13.346;2022-08-01T00:04:11;2.03;;;1.90;;
51122;SDS011;37162;41.724;13.346;2022-08-01T00:06:37;4.95;;;2.10;;
51122;SDS011;37162;41.724;13.346;2022-08-01T00:09:02;1.90;;;1.80;;
51122;SDS011;37162;41.724;13.346;2022-08-01T00:11:28;2.15;;;1.88;;
51122;SDS011;37162;41.724;13.346;2022-08-01T00:13:53;2.15;;;1.70;;
51122;SDS011;37162;41.724;13.346;2022-08-01T00:16:19;3.05;;;2.00;;
51122;SDS011;37162;41.724;13.346;2022-08-01T00:18:47;4.30;;;1.92;;
51122;SDS011;37162;41.724;13.346;2022-08-01T00:21:14;1.90;;;1.80;;
51122;SDS011;37162;41.724;13.346;2022-08-01T00:23:40;2.40;;;1.95;;
51122;SDS011;37162;41.724;13.346;2022-08-01T00:26:05;1.75;;;1.63;;
51122;SDS011;37162;41.724;13.346;2022-08-01T00:28:30;3.15;;;1.90;;
51122;SDS011;37162;41.724;13.346;2022-08-01T00:30:56;3.38;;;1.77;;
51122;SDS011;37162;41.724;13.346;2022-08-01T00:33:21;5.75;;;3.10;;
51122;SDS011;37162;41.724;13.346;2022-08-01T00:35:47;2.10;;;1.60;;
51122;SDS011;37162;41.724;13.346;2022-08-01T00:38:12;1.90;;;1.70;;
51122;SDS011;37162;41.724;13.346;2022-08-01T00:40:37;2.35;;;1.67;;
51122;SDS011;37162;41.724;13.346;2022-08-01T00:43:03;2.63;;;1.80;;
51122;SDS011;37162;41.724;13.346;2022-08-01T00:45:28;2.80;;;1.98;;
51122;SDS011;37162;41.724;13.346;2022-08-01T00:47:54;2.28;;;1.85;;
51122;SDS011;37162;41.724;13.346;2022-08-01T00:50:19;2.30;;;2.10;;
51122;SDS011;37162;41.724;13.346;2022-08-01T00:52:45;2.15;;;1.90;;
51122;SDS011;37162;41.724;13.346;2022-08-01T00:55:10;1.92;;;1.77;;
51122;SDS011;37162;41.724;13.346;2022-08-01T00:57:37;3.47;;;1.90;;
51122;SDS011;37162;41.724;13.346;2022-08-01T01:00:05;3.83;;;1.95;;
51122;SDS011;37162;41.724;13.346;2022-08-01T01:02:31;2.10;;;1.70;;
51122;SDS011;37162;41.724;13.346;2022-08-01T01:04:57;5.55;;;2.05;;
51122;SDS011;37162;41.724;13.346;2022-08-01T01:07:25;1.92;;;1.75;;
51122;SDS011;37162;41.724;13.346;2022-08-01T01:10:25;4.07;;;2.03;;
51122;SDS011;37162;41.724;13.346;2022-08-01T01:15:40;4.90;;;2.40;;
51122;SDS011;37162;41.724;13.346;2022-08-01T01:18:13;4.35;;;1.80;;
51122;SDS011;37162;41.724;13.346;2022-08-01T01:20:48;2.60;;;1.85;;
51122;SDS011;37162;41.724;13.346;2022-08-01T01:29:21;3.03;;;1.90;;
51122;SDS011;37162;41.724;13.346;2022-08-01T01:34:11;3.20;;;2.42;;
51122;SDS011;37162;41.724;13.346;2022-08-01T01:36:39;3.75;;;2.20;;
51122;SDS011;37162;41.724;13.346;2022-08-01T01:39:06;3.65;;;1.70;;
51122;SDS011;37162;41.724;13.346;2022-08-01T01:41:32;2.65;;;2.30;;
51122;SDS011;37162;41.724;13.346;2022-08-01T01:44:01;1.90;;;1.75;;
51122;SDS011;37162;41.724;13.346;2022-08-01T01:46:29;2.30;;;1.90;;
51122;SDS011;37162;41.724;13.346;2022-08-01T01:48:57;2.42;;;1.88;;
51122;SDS011;37162;41.724;13.346;2022-08-01T01:51:24;3.25;;;2.05;;
51122;SDS011;37162;41.724;13.346;2022-08-01T01:53:52;2.78;;;1.60;;
51122;SDS011;37162;41.724;13.346;2022-08-01T01:56:19;3.28;;;2.03;;
51122;SDS011;37162;41.724;13.346;2022-08-01T01:58:46;4.30;;;2.05;;
51122;SDS011;37162;41.724;13.346;2022-08-01T02:01:15;2.38;;;1.63;;
51122;SDS011;37162;41.724;13.346;2022-08-01T02:03:42;4.60;;;2.15;;
51122;SDS011;37162;41.724;13.346;2022-08-01T02:06:08;2.25;;;1.90;;
51122;SDS011;37162;41.724;13.346;2022-08-01T02:08:37;1.90;;;1.75;;
51122;SDS011;37162;41.724;13.346;2022-08-01T02:11:07;1.83;;;1.65;;
51122;SDS011;37162;41.724;13.346;2022-08-01T02:14:06;3.10;;;1.70;;
51122;SDS011;37162;41.724;13.346;2022-08-01T02:16:36;2.70;;;1.90;;
51122;SDS011;37162;41.724;13.346;2022-08-01T02:19:06;3.45;;;2.35;;
51122;SDS011;37162;41.724;13.346;2022-08-01T02:21:34;3.30;;;2.70;;
51122;SDS011;37162;41.724;13.346;2022-08-01T02:24:54;3.72;;;1.85;;
51122;SDS011;37162;41.724;13.346;2022-08-01T02:27:00;1.80;;;1.70;;
51122;SDS011;37162;41.724;13.346;2022-08-01T02:29:34;2.08;;;1.88;;
51122;SDS011;37162;41.724;13.346;2022-08-01T02:32:05;2.03;;;1.67;;
51122;SDS011;37162;41.724;13.346;2022-08-01T02:34:32;5.22;;;1.98;;
51122;SDS011;37162;41.724;13.346;2022-08-01T02:37:00;1.95;;;1.80;;
51122;SDS011;37162;41.724;13.346;2022-08-01T02:39:28;2.53;;;1.77;;
51122;SDS011;37162;41.724;13.346;2022-08-01T02:41:56;3.40;;;2.00;;
51122;SDS011;37162;41.724;13.346;2022-08-01T02:44:27;2.17;;;1.85;;
51122;SDS011;37162;41.724;13.346;2022-08-01T02:47:02;1.83;;;1.65;;
51122;SDS011;37162;41.724;13.346;2022-08-01T02:49:32;3.90;;;2.30;;
51122;SDS011;37162;41.724;13.346;2022-08-01T02:52:01;2.15;;;1.75;;
51122;SDS011;37162;41.724;13.346;2022-08-01T02:54:31;5.35;;;1.90;;
51122;SDS011;37162;41.724;13.346;2022-08-01T02:56:58;2.35;;;1.85;;
51122;SDS011;37162;41.724;13.346;2022-08-01T02:59:25;4.88;;;1.90;;
51122;SDS011;37162;41.724;13.346;2022-08-01T03:01:55;2.95;;;1.77;;
51122;SDS011;37162;41.724;13.346;2022-08-01T03:04:23;2.42;;;1.70;;
51122;SDS011;37162;41.724;13.346;2022-08-01T03:06:51;2.17;;;1.85;;
51122;SDS011;37162;41.724;13.346;2022-08-01T03:09:19;3.65;;;1.95;;
51122;SDS011;37162;41.724;13.346;2022-08-01T03:11:45;2.20;;;1.67;;
51122;SDS011;37162;41.724;13.346;2022-08-01T03:14:12;2.85;;;2.28;;
51122;SDS011;37162;41.724;13.346;2022-08-01T03:16:39;5.22;;;2.08;;
51122;SDS011;37162;41.724;13.346;2022-08-01T03:19:09;4.35;;;2.03;;
51122;SDS011;37162;41.724;13.346;2022-08-01T03:21:37;2.05;;;1.52;;
51122;SDS011;37162;41.724;13.346;2022-08-01T03:24:05;2.97;;;1.98;;
51122;SDS011;37162;41.724;13.346;2022-08-01T03:26:33;2.17;;;1.77;;
51122;SDS011;37162;41.724;13.346;2022-08-01T03:29:04;2.10;;;1.83;;
51122;SDS011;37162;41.724;13.346;2022-08-01T03:31:32;3.80;;;1.65;;
51122;SDS011;37162;41.724;13.346;2022-08-01T03:34:00;2.70;;;1.95;;
51122;SDS011;37162;41.724;13.346;2022-08-01T03:36:26;2.13;;;1.90;;
51122;SDS011;37162;41.724;13.346;2022-08-01T03:38:56;5.50;;;1.70;;
51122;SDS011;37162;41.724;13.346;2022-08-01T03:41:23;2.17;;;1.60;;
51122;SDS011;37162;41.724;13.346;2022-08-01T03:44:02;4.55;;;1.98;;
51122;SDS011;37162;41.724;13.346;2022-08-01T03:46:33;6.80;;;1.70;;
51122;SDS011;37162;41.724;13.346;2022-08-01T03:49:06;3.70;;;1.88;;
51122;SDS011;37162;41.724;13.346;2022-08-01T03:51:42;2.45;;;1.60;;
51122;SDS011;37162;41.724;13.346;2022-08-01T03:54:13;3.15;;;2.10;;
51122;SDS011;37162;41.724;13.346;2022-08-01T03:56:40;2.63;;;1.90;;
51122;SDS011;37162;41.724;13.346;2022-08-01T03:59:10;2.05;;;1.85;;
51122;SDS011;37162;41.724;13.346;2022-08-01T04:01:36;1.83;;;1.52;;
51122;SDS011;37162;41.724;13.346;2022-08-01T04:04:08;1.92;;;1.75;;
51122;SDS011;37162;41.724;13.346;2022-08-01T04:06:36;3.47;;;1.95;;
51122;SDS011;37162;41.724;13.346;2022-08-01T04:09:03;2.13;;;1.60;;
51122;SDS011;37162;41.724;13.346;2022-08-01T04:11:31;2.90;;;1.88;;
51122;SDS011;37162;41.724;13.346;2022-08-01T04:13:57;2.80;;;1.42;;
51122;SDS011;37162;41.724;13.346;2022-08-01T04:16:23;2.58;;;1.63;;
51122;SDS011;37162;41.724;13.346;2022-08-01T04:18:48;3.60;;;1.80;;
51122;SDS011;37162;41.724;13.346;2022-08-01T04:21:14;3.80;;;1.58;;
51122;SDS011;37162;41.724;13.346;2022-08-01T04:23:45;2.20;;;1.42;;
51122;SDS011;37162;41.724;13.346;2022-08-01T04:26:12;2.08;;;1.63;;
51122;SDS011;37162;41.724;13.346;2022-08-01T04:28:39;3.38;;;1.58;;
51122;SDS011;37162;41.724;13.346;2022-08-01T04:31:08;6.15;;;1.55;;
51122;SDS011;37162;41.724;13.346;2022-08-01T04:33:37;1.77;;;1.50;;
51122;SDS011;37162;41.724;13.346;2022-08-01T04:36:05;4.63;;;1.55;;
51122;SDS011;37162;41.724;13.346;2022-08-01T04:38:33;1.33;;;1.23;;
51122;SDS011;37162;41.724;13.346;2022-08-01T04:41:01;4.07;;;1.75;;
51122;SDS011;37162;41.724;13.346;2022-08-01T04:43:28;1.67;;;1.58;;
51122;SDS011;37162;41.724;13.346;2022-08-01T04:45:53;4.63;;;1.65;;
51122;SDS011;37162;41.724;13.346;2022-08-01T04:48:20;3.15;;;1.63;;
51122;SDS011;37162;41.724;13.346;2022-08-01T04:50:46;3.28;;;1.83;;
51122;SDS011;37162;41.724;13.346;2022-08-01T04:53:15;2.38;;;1.50;;
51122;SDS011;37162;41.724;13.346;2022-08-01T04:55:43;2.13;;;1.55;;
51122;SDS011;37162;41.724;13.346;2022-08-01T04:58:10;3.75;;;1.40;;
51122;SDS011;37162;41.724;13.346;2022-08-01T05:00:36;4.13;;;1.95;;
51122;SDS011;37162;41.724;13.346;2022-08-01T05:03:01;1.70;;;1.60;;
51122;SDS011;37162;41.724;13.346;2022-08-01T05:05:27;3.17;;;1.75;;
51122;SDS011;37162;41.724;13.346;2022-08-01T05:07:53;3.45;;;2.42;;
51122;SDS011;37162;41.724;13.346;2022-08-01T05:10:18;2.53;;;1.90;;
51122;SDS011;37162;41.724;13.346;2022-08-01T05:12:43;2.83;;;1.85;;
51122;SDS011;37162;41.724;13.346;2022-08-01T05:15:09;3.00;;;2.10;;
51122;SDS011;37162;41.724;13.346;2022-08-01T05:17:38;5.20;;;1.75;;
51122;SDS011;37162;41.724;13.346;2022-08-01T05:20:03;1.60;;;1.50;;
51122;SDS011;37162;41.724;13.346;2022-08-01T05:22:31;1.70;;;1.60;;
51122;SDS011;37162;41.724;13.346;2022-08-01T05:24:57;4.88;;;1.80;;
51122;SDS011;37162;41.724;13.346;2022-08-01T05:27:22;2.38;;;1.80;;
51122;SDS011;37162;41.724;13.346;2022-08-01T05:29:47;2.42;;;1.60;;
51122;SDS011;37162;41.724;13.346;2022-08-01T05:32:13;3.40;;;2.15;;
51122;SDS011;37162;41.724;13.346;2022-08-01T05:34:38;1.75;;;1.60;;
51122;SDS011;37162;41.724;13.346;2022-08-01T05:37:04;3.55;;;2.10;;
51122;SDS011;37162;41.724;13.346;2022-08-01T05:39:29;3.47;;;2.03;;
51122;SDS011;37162;41.724;13.346;2022-08-01T05:41:55;2.15;;;1.65;;
51122;SDS011;37162;41.724;13.346;2022-08-01T05:44:20;2.17;;;1.92;;
51122;SDS011;37162;41.724;13.346;2022-08-01T05:46:46;3.35;;;2.13;;
51122;SDS011;37162;41.724;13.346;2022-08-01T05:49:11;5.70;;;1.92;;
51122;SDS011;37162;41.724;13.346;2022-08-01T05:51:37;3.35;;;2.05;;
51122;SDS011;37162;41.724;13.346;2022-08-01T05:54:02;2.80;;;2.00;;
51122;SDS011;37162;41.724;13.346;2022-08-01T05:56:28;2.00;;;1.80;;
51122;SDS011;37162;41.724;13.346;2022-08-01T05:58:53;3.30;;;1.80;;
51122;SDS011;37162;41.724;13.346;2022-08-01T06:01:19;4.35;;;1.60;;
51122;SDS011;37162;41.724;13.346;2022-08-01T06:03:44;4.00;;;1.40;;
51122;SDS011;37162;41.724;13.346;2022-08-01T06:06:10;1.58;;;1.35;;
51122;SDS011;37162;41.724;13.346;2022-08-01T06:08:36;2.13;;;1.40;;
51122;SDS011;37162;41.724;13.346;2022-08-01T06:11:01;1.60;;;1.38;;
51122;SDS011;37162;41.724;13.346;2022-08-01T06:13:28;5.03;;;1.77;;
51122;SDS011;37162;41.724;13.346;2022-08-01T06:15:53;2.95;;;1.50;;
51122;SDS011;37162;41.724;13.346;2022-08-01T06:18:19;4.20;;;1.63;;
51122;SDS011;37162;41.724;13.346;2022-08-01T06:20:55;1.77;;;1.50;;
51122;SDS011;37162;41.724;13.346;2022-08-01T06:23:21;2.70;;;1.40;;
51122;SDS011;37162;41.724;13.346;2022-08-01T06:25:46;3.40;;;1.80;;
51122;SDS011;37162;41.724;13.346;2022-08-01T06:28:12;2.45;;;1.48;;
51122;SDS011;37162;41.724;13.346;2022-08-01T06:30:38;1.95;;;1.52;;
51122;SDS011;37162;41.724;13.346;2022-08-01T06:33:03;2.38;;;1.60;;
51122;SDS011;37162;41.724;13.346;2022-08-01T06:35:29;4.57;;;1.40;;
51122;SDS011;37162;41.724;13.346;2022-08-01T06:37:56;2.50;;;1.60;;
51122;SDS011;37162;41.724;13.346;2022-08-01T06:40:22;1.55;;;1.40;;
51122;SDS011;37162;41.724;13.346;2022-08-01T06:42:48;2.80;;;1.08;;
51122;SDS011;37162;41.724;13.346;2022-08-01T06:45:14;1.58;;;1.42;;
51122;SDS011;37162;41.724;13.346;2022-08-01T06:47:40;2.25;;;1.27;;
51122;SDS011;37162;41.724;13.346;2022-08-01T06:50:07;1.95;;;1.40;;
51122;SDS011;37162;41.724;13.346;2022-08-01T06:52:34;1.10;;;1.00;;
51122;SDS011;37162;41.724;13.346;2022-08-01T06:55:00;1.42;;;1.13;;
51122;SDS011;37162;41.724;13.346;2022-08-01T06:57:26;1.65;;;1.55;;
51122;SDS011;37162;41.724;13.346;2022-08-01T06:59:52;1.50;;;1.40;;
51122;SDS011;37162;41.724;13.346;2022-08-01T07:02:17;2.80;;;1.30;;
51122;SDS011;37162;41.724;13.346;2022-08-01T07:04:43;1.20;;;1.10;;
51122;SDS011;37162;41.724;13.346;2022-08-01T07:07:08;1.30;;;1.20;;
51122;SDS011;37162;41.724;13.346;2022-08-01T07:09:34;3.03;;;1.30;;
51122;SDS011;37162;41.724;13.346;2022-08-01T07:11:59;2.17;;;1.13;;
51122;SDS011;37162;41.724;13.346;2022-08-01T07:14:25;2.97;;;1.40;;
51122;SDS011;37162;41.724;13.346;2022-08-01T07:16:51;2.03;;;1.40;;
51122;SDS011;37162;41.724;13.346;2022-08-01T07:19:17;1.70;;;1.20;;
51122;SDS011;37162;41.724;13.346;2022-08-01T07:21:43;3.25;;;1.40;;
51122;SDS011;37162;41.724;13.346;2022-08-01T07:24:09;1.48;;;1.10;;
51122;SDS011;37162;41.724;13.346;2022-08-01T07:26:39;1.27;;;1.17;;
51122;SDS011;37162;41.724;13.346;2022-08-01T07:29:08;1.60;;;1.20;;
51122;SDS011;37162;41.724;13.346;2022-08-01T07:31:34;2.33;;;1.30;;
51122;SDS011;37162;41.724;13.346;2022-08-01T07:33:59;2.72;;;1.17;;
51122;SDS011;37162;41.724;13.346;2022-08-01T07:36:25;1.88;;;1.20;;
51122;SDS011;37162;41.724;13.346;2022-08-01T07:38:50;1.35;;;1.20;;
51122;SDS011;37162;41.724;13.346;2022-08-01T07:41:16;1.35;;;1.25;;
51122;SDS011;37162;41.724;13.346;2022-08-01T07:43:41;1.77;;;1.23;;
51122;SDS011;37162;41.724;13.346;2022-08-01T07:46:07;1.42;;;1.30;;
51122;SDS011;37162;41.724;13.346;2022-08-01T07:48:32;3.42;;;1.30;;
51122;SDS011;37162;41.724;13.346;2022-08-01T07:50:58;3.00;;;1.27;;
51122;SDS011;37162;41.724;13.346;2022-08-01T07:53:23;1.67;;;1.25;;
51122;SDS011;37162;41.724;13.346;2022-08-01T07:55:48;1.27;;;1.10;;
51122;SDS011;37162;41.724;13.346;2022-08-01T07:58:14;3.47;;;1.30;;
51122;SDS011;37162;41.724;13.346;2022-08-01T08:00:40;4.55;;;1.40;;
51122;SDS011;37162;41.724;13.346;2022-08-01T08:03:06;49.80;;;4.63;;
51122;SDS011;37162;41.724;13.346;2022-08-01T08:05:31;10.02;;;2.47;;
51122;SDS011;37162;41.724;13.346;2022-08-01T08:08:00;9.02;;;1.70;;
51122;SDS011;37162;41.724;13.346;2022-08-01T08:10:35;15.45;;;2.45;;
51122;SDS011;37162;41.724;13.346;2022-08-01T08:13:01;17.27;;;2.55;;
51122;SDS011;37162;41.724;13.346;2022-08-01T08:15:27;5.95;;;2.03;;
51122;SDS011;37162;41.724;13.346;2022-08-01T08:17:53;6.50;;;1.80;;
51122;SDS011;37162;41.724;13.346;2022-08-01T08:20:19;3.30;;;1.60;;
51122;SDS011;37162;41.724;13.346;2022-08-01T08:22:49;6.32;;;1.50;;
51122;SDS011;37162;41.724;13.346;2022-08-01T08:25:15;6.95;;;1.63;;
51122;SDS011;37162;41.724;13.346;2022-08-01T08:27:41;5.10;;;1.75;;
51122;SDS011;37162;41.724;13.346;2022-08-01T08:30:06;2.72;;;1.80;;
51122;SDS011;37162;41.724;13.346;2022-08-01T08:32:36;8.40;;;1.50;;
51122;SDS011;37162;41.724;13.346;2022-08-01T08:35:02;2.75;;;1.98;;
51122;SDS011;37162;41.724;13.346;2022-08-01T08:37:27;2.47;;;1.58;;
51122;SDS011;37162;41.724;13.346;2022-08-01T08:39:53;6.45;;;1.60;;
51122;SDS011;37162;41.724;13.346;2022-08-01T08:42:18;2.25;;;1.50;;
51122;SDS011;37162;41.724;13.346;2022-08-01T08:44:44;3.90;;;1.65;;
51122;SDS011;37162;41.724;13.346;2022-08-01T08:47:13;1.55;;;1.45;;
51122;SDS011;37162;41.724;13.346;2022-08-01T08:49:39;2.83;;;1.48;;
51122;SDS011;37162;41.724;13.346;2022-08-01T08:52:07;1.73;;;1.30;;
51122;SDS011;37162;41.724;13.346;2022-08-01T08:54:34;2.90;;;1.70;;
51122;SDS011;37162;41.724;13.346;2022-08-01T08:57:02;1.40;;;1.30;;
51122;SDS011;37162;41.724;13.346;2022-08-01T08:59:27;2.85;;;1.35;;
51122;SDS011;37162;41.724;13.346;2022-08-01T09:01:53;2.35;;;1.30;;
51122;SDS011;37162;41.724;13.346;2022-08-01T09:04:20;2.60;;;1.30;;
51122;SDS011;37162;41.724;13.346;2022-08-01T09:06:47;1.95;;;1.40;;
51122;SDS011;37162;41.724;13.346;2022-08-01T09:09:13;2.25;;;1.88;;
51122;SDS011;37162;41.724;13.346;2022-08-01T09:11:38;2.95;;;1.63;;
51122;SDS011;37162;41.724;13.346;2022-08-01T09:16:30;1.50;;;1.35;;
51122;SDS011;37162;41.724;13.346;2022-08-01T09:22:00;2.67;;;1.38;;
51122;SDS011;37162;41.724;13.346;2022-08-01T09:24:28;4.82;;;1.80;;
51122;SDS011;37162;41.724;13.346;2022-08-01T09:26:55;2.00;;;1.50;;
51122;SDS011;37162;41.724;13.346;2022-08-01T09:29:25;4.47;;;1.33;;
51122;SDS011;37162;41.724;13.346;2022-08-01T09:31:58;4.57;;;1.60;;
51122;SDS011;37162;41.724;13.346;2022-08-01T09:34:26;1.48;;;1.38;;
51122;SDS011;37162;41.724;13.346;2022-08-01T09:36:59;2.67;;;1.50;;
51122;SDS011;37162;41.724;13.346;2022-08-01T09:39:27;4.53;;;1.23;;
51122;SDS011;37162;41.724;13.346;2022-08-01T09:41:59;2.15;;;1.40;;
51122;SDS011;37162;41.724;13.346;2022-08-01T09:44:39;3.17;;;1.60;;
51122;SDS011;37162;41.724;13.346;2022-08-01T09:47:09;1.42;;;1.15;;
51122;SDS011;37162;41.724;13.346;2022-08-01T09:49:36;2.30;;;1.35;;
51122;SDS011;37162;41.724;13.346;2022-08-01T09:52:36;4.65;;;1.50;;
51122;SDS011;37162;41.724;13.346;2022-08-01T09:54:56;4.10;;;1.40;;
51122;SDS011;37162;41.724;13.346;2022-08-01T09:57:24;2.88;;;1.17;;
51122;SDS011;37162;41.724;13.346;2022-08-01T09:59:51;2.17;;;1.60;;
51122;SDS011;37162;41.724;13.346;2022-08-01T10:02:38;1.23;;;1.13;;
51122;SDS011;37162;41.724;13.346;2022-08-01T10:05:08;1.50;;;1.30;;
51122;SDS011;37162;41.724;13.346;2022-08-01T10:07:36;1.15;;;1.05;;
51122;SDS011;37162;41.724;13.346;2022-08-01T10:10:20;3.28;;;1.35;;
51122;SDS011;37162;41.724;13.346;2022-08-01T10:12:45;2.03;;;1.13;;
51122;SDS011;37162;41.724;13.346;2022-08-01T10:15:15;1.55;;;1.40;;
51122;SDS011;37162;41.724;13.346;2022-08-01T10:17:45;1.90;;;1.25;;
51122;SDS011;37162;41.724;13.346;2022-08-01T10:20:16;2.13;;;1.60;;
51122;SDS011;37162;41.724;13.346;2022-08-01T10:22:45;3.67;;;1.38;;
51122;SDS011;37162;41.724;13.346;2022-08-01T10:25:12;4.05;;;1.30;;
51122;SDS011;37162;41.724;13.346;2022-08-01T10:27:42;3.13;;;1.40;;
51122;SDS011;37162;41.724;13.346;2022-08-01T10:30:10;2.22;;;1.52;;
51122;SDS011;37162;41.724;13.346;2022-08-01T10:32:36;1.88;;;1.20;;
51122;SDS011;37162;41.724;13.346;2022-08-01T10:35:05;4.40;;;1.27;;
51122;SDS011;37162;41.724;13.346;2022-08-01T10:37:33;7.45;;;1.60;;
51122;SDS011;37162;41.724;13.346;2022-08-01T10:40:00;16.23;;;2.05;;
51122;SDS011;37162;41.724;13.346;2022-08-01T10:42:26;2.65;;;1.40;;
51122;SDS011;37162;41.724;13.346;2022-08-01T10:44:55;12.40;;;1.80;;
51122;SDS011;37162;41.724;13.346;2022-08-01T10:47:27;12.15;;;1.50;;
51122;SDS011;37162;41.724;13.346;2022-08-01T10:50:04;6.78;;;1.40;;
51122;SDS011;37162;41.724;13.346;2022-08-01T10:52:41;3.05;;;1.40;;
51122;SDS011;37162;41.724;13.346;2022-08-01T10:55:07;4.78;;;1.50;;
51122;SDS011;37162;41.724;13.346;2022-08-01T10:57:45;3.17;;;1.15;;
51122;SDS011;37162;41.724;13.346;2022-08-01T11:00:21;3.55;;;1.42;;
51122;SDS011;37162;41.724;13.346;2022-08-01T11:02:57;4.32;;;1.17;;
51122;SDS011;37162;41.724;13.346;2022-08-01T11:05:26;2.25;;;1.58;;
51122;SDS011;37162;41.724;13.346;2022-08-01T11:07:54;1.95;;;1.00;;
51122;SDS011;37162;41.724;13.346;2022-08-01T11:13:04;1.55;;;1.23;;
51122;SDS011;37162;41.724;13.346;2022-08-01T11:15:33;3.20;;;1.40;;
51122;SDS011;37162;41.724;13.346;2022-08-01T11:18:00;3.45;;;1.27;;
51122;SDS011;37162;41.724;13.346;2022-08-01T11:20:36;3.67;;;1.33;;
51122;SDS011;37162;41.724;13.346;2022-08-01T11:30:41;2.70;;;1.35;;
51122;SDS011;37162;41.724;13.346;2022-08-01T11:33:10;3.67;;;1.60;;
51122;SDS011;37162;41.724;13.346;2022-08-01T11:35:38;1.52;;;0.95;;
51122;SDS011;37162;41.724;13.346;2022-08-01T11:43:54;2.60;;;1.00;;
51122;SDS011;37162;41.724;13.346;2022-08-01T11:54:31;1.33;;;1.00;;
51122;SDS011;37162;41.724;13.346;2022-08-01T11:57:05;0.70;;;0.70;;
51122;SDS011;37162;41.724;13.346;2022-08-01T11:59:36;1.55;;;0.85;;
51122;SDS011;37162;41.724;13.346;2022-08-01T12:02:18;0.80;;;0.80;;
51122;SDS011;37162;41.724;13.346;2022-08-01T12:04:46;3.13;;;1.13;;
51122;SDS011;37162;41.724;13.346;2022-08-01T12:07:26;0.60;;;0.60;;
51122;SDS011;37162;41.724;13.346;2022-08-01T12:10:09;0.93;;;0.90;;
51122;SDS011;37162;41.724;13.346;2022-08-01T12:12:36;0.80;;;0.80;;
51122;SDS011;37162;41.724;13.346;2022-08-01T12:15:09;0.82;;;0.80;;
51122;SDS011;37162;41.724;13.346;2022-08-01T12:17:36;0.82;;;0.73;;
51122;SDS011;37162;41.724;13.346;2022-08-01T12:20:04;1.38;;;0.88;;
51122;SDS011;37162;41.724;13.346;2022-08-01T12:22:34;0.60;;;0.60;;
51122;SDS011;37162;41.724;13.346;2022-08-01T12:25:13;0.90;;;0.70;;
51122;SDS011;37162;41.724;13.346;2022-08-01T12:27:41;3.58;;;0.80;;
51122;SDS011;37162;41.724;13.346;2022-08-01T12:30:10;0.80;;;0.80;;
51122;SDS011;37162;41.724;13.346;2022-08-01T12:32:37;0.75;;;0.75;;
51122;SDS011;37162;41.724;13.346;2022-08-01T12:37:30;1.85;;;0.70;;
51122;SDS011;37162;41.724;13.346;2022-08-01T12:39:59;0.90;;;0.70;;
51122;SDS011;37162;41.724;13.346;2022-08-01T12:42:25;0.70;;;0.70;;
51122;SDS011;37162;41.724;13.346;2022-08-01T12:44:51;0.65;;;0.65;;
51122;SDS011;37162;41.724;13.346;2022-08-01T12:47:18;0.68;;;0.68;;
51122;SDS011;37162;41.724;13.346;2022-08-01T12:49:45;2.45;;;0.80;;
51122;SDS011;37162;41.724;13.346;2022-08-01T12:52:12;0.70;;;0.60;;
51122;SDS011;37162;41.724;13.346;2022-08-01T12:57:28;1.77;;;0.70;;
51122;SDS011;37162;41.724;13.346;2022-08-01T13:00:03;0.88;;;0.77;;
51122;SDS011;37162;41.724;13.346;2022-08-01T13:02:40;0.82;;;0.77;;
51122;SDS011;37162;41.724;13.346;2022-08-01T13:05:07;5.30;;;0.90;;
51122;SDS011;37162;41.724;13.346;2022-08-01T13:07:35;0.50;;;0.50;;
51122;SDS011;37162;41.724;13.346;2022-08-01T13:10:02;0.60;;;0.60;;
51122;SDS011;37162;41.724;13.346;2022-08-01T13:12:28;0.70;;;0.70;;
51122;SDS011;37162;41.724;13.346;2022-08-01T13:14:54;0.60;;;0.60;;
51122;SDS011;37162;41.724;13.346;2022-08-01T13:17:35;1.65;;;1.52;;
51122;SDS011;37162;41.724;13.346;2022-08-01T13:20:03;0.98;;;0.75;;
51122;SDS011;37162;41.724;13.346;2022-08-01T13:22:37;0.73;;;0.70;;
51122;SDS011;37162;41.724;13.346;2022-08-01T13:25:12;1.00;;;0.90;;
51122;SDS011;37162;41.724;13.346;2022-08-01T13:27:40;1.25;;;0.90;;
51122;SDS011;37162;41.724;13.346;2022-08-01T13:30:16;0.80;;;0.80;;
51122;SDS011;37162;41.724;13.346;2022-08-01T13:32:43;2.00;;;0.80;;
51122;SDS011;37162;41.724;13.346;2022-08-01T13:35:21;0.70;;;0.70;;
51122;SDS011;37162;41.724;13.346;2022-08-01T13:37:47;0.90;;;0.70;;
51122;SDS011;37162;41.724;13.346;2022-08-01T13:40:23;0.90;;;0.70;;
51122;SDS011;37162;41.724;13.346;2022-08-01T13:42:51;1.35;;;0.98;;
51122;SDS011;37162;41.724;13.346;2022-08-01T13:45:16;1.00;;;0.90;;
51122;SDS011;37162;41.724;13.346;2022-08-01T13:47:42;0.65;;;0.60;;
51122;SDS011;37162;41.724;13.346;2022-08-01T13:50:08;0.70;;;0.70;;
51122;SDS011;37162;41.724;13.346;2022-08-01T13:52:33;1.00;;;0.90;;
51122;SDS011;37162;41.724;13.346;2022-08-01T13:54:59;0.95;;;0.95;;
51122;SDS011;37162;41.724;13.346;2022-08-01T13:57:26;0.80;;;0.80;;
51122;SDS011;37162;41.724;13.346;2022-08-01T13:59:51;1.40;;;1.00;;
51122;SDS011;37162;41.724;13.346;2022-08-01T14:02:17;2.45;;;1.00;;
51122;SDS011;37162;41.724;13.346;2022-08-01T14:04:42;2.03;;;1.00;;
51122;SDS011;37162;41.724;13.346;2022-08-01T14:07:07;1.10;;;1.00;;
51122;SDS011;37162;41.724;13.346;2022-08-01T14:09:33;1.48;;;1.00;;
51122;SDS011;37162;41.724;13.346;2022-08-01T14:11:58;0.90;;;0.90;;
51122;SDS011;37162;41.724;13.346;2022-08-01T14:14:24;0.80;;;0.60;;
51122;SDS011;37162;41.724;13.346;2022-08-01T14:16:49;6.03;;;1.08;;
51122;SDS011;37162;41.724;13.346;2022-08-01T14:19:15;1.55;;;1.10;;
51122;SDS011;37162;41.724;13.346;2022-08-01T14:21:41;1.10;;;0.90;;
51122;SDS011;37162;41.724;13.346;2022-08-01T14:24:07;6.00;;;0.90;;
51122;SDS011;37162;41.724;13.346;2022-08-01T14:26:33;1.38;;;1.10;;
51122;SDS011;37162;41.724;13.346;2022-08-01T14:28:58;1.67;;;1.10;;
51122;SDS011;37162;41.724;13.346;2022-08-01T14:31:24;2.35;;;1.10;;
51122;SDS011;37162;41.724;13.346;2022-08-01T14:33:49;2.03;;;1.17;;
51122;SDS011;37162;41.724;13.346;2022-08-01T14:36:15;1.17;;;0.80;;
51122;SDS011;37162;41.724;13.346;2022-08-01T14:38:40;2.90;;;1.35;;
51122;SDS011;37162;41.724;13.346;2022-08-01T14:41:05;2.10;;;1.15;;
51122;SDS011;37162;41.724;13.346;2022-08-01T14:43:31;2.35;;;1.55;;
51122;SDS011;37162;41.724;13.346;2022-08-01T14:45:57;1.55;;;0.98;;
51122;SDS011;37162;41.724;13.346;2022-08-01T14:48:23;1.30;;;1.20;;
51122;SDS011;37162;41.724;13.346;2022-08-01T14:50:48;1.23;;;1.10;;
51122;SDS011;37162;41.724;13.346;2022-08-01T14:53:15;1.50;;;1.13;;
51122;SDS011;37162;41.724;13.346;2022-08-01T14:55:40;1.52;;;1.35;;
51122;SDS011;37162;41.724;13.346;2022-08-01T14:58:06;3.45;;;1.35;;
51122;SDS011;37162;41.724;13.346;2022-08-01T15:00:31;1.40;;;1.20;;
51122;SDS011;37162;41.724;13.346;2022-08-01T15:02:57;1.67;;;1.15;;
51122;SDS011;37162;41.724;13.346;2022-08-01T15:05:22;1.63;;;1.00;;
51122;SDS011;37162;41.724;13.346;2022-08-01T15:07:48;1.33;;;1.10;;
51122;SDS011;37162;41.724;13.346;2022-08-01T15:10:13;3.03;;;1.05;;
51122;SDS011;37162;41.724;13.346;2022-08-01T15:12:41;2.65;;;1.77;;
51122;SDS011;37162;41.724;13.346;2022-08-01T15:15:07;2.13;;;1.27;;
51122;SDS011;37162;41.724;13.346;2022-08-01T15:17:32;3.05;;;1.27;;
51122;SDS011;37162;41.724;13.346;2022-08-01T15:20:02;1.50;;;1.30;;
51122;SDS011;37162;41.724;13.346;2022-08-01T15:22:30;3.45;;;1.40;;
51122;SDS011;37162;41.724;13.346;2022-08-01T15:24:56;5.03;;;1.20;;